sensor_id;sensor_type;location;lat;lon;timestamp;P1;durP1;ratioP1;P2;durP2;ratioP2
45077;SDS011;60508;42.622;25.416;2023-04-16T00:00:41;13.18;;;4.00;;
45077;SDS011;60508;42.622;25.416;2023-04-16T00:03:07;10.02;;;4.03;;
45077;SDS011;60508;42.622;25.416;2023-04-16T00:05:33;7.40;;;2.90;;
45077;SDS011;60508;42.622;25.416;2023-04-16T00:07:59;10.95;;;3.78;;
45077;SDS011;60508;42.622;25.416;2023-04-16T00:10:25;8.43;;;3.38;;
45077;SDS011;60508;42.622;25.416;2023-04-16T00:12:52;8.82;;;3.45;;
45077;SDS011;60508;42.622;25.416;2023-04-16T00:15:17;12.52;;;3.95;;
45077;SDS011;60508;42.622;25.416;2023-04-16T00:17:43;9.27;;;3.30;;
45077;SDS011;60508;42.622;25.416;2023-04-16T00:20:09;11.02;;;4.45;;
45077;SDS011;60508;42.622;25.416;2023-04-16T00:22:36;16.92;;;3.85;;
45077;SDS011;60508;42.622;25.416;2023-04-16T00:25:02;12.30;;;4.82;;
45077;SDS011;60508;42.622;25.416;2023-04-16T00:27:28;8.77;;;2.97;;
45077;SDS011;60508;42.622;25.416;2023-04-16T00:29:54;9.35;;;4.63;;
45077;SDS011;60508;42.622;25.416;2023-04-16T00:32:20;12.00;;;4.03;;
45077;SDS011;60508;42.622;25.416;2023-04-16T00:34:46;9.88;;;4.47;;
45077;SDS011;60508;42.622;25.416;2023-04-16T00:37:12;5.80;;;3.80;;
45077;SDS011;60508;42.622;25.416;2023-04-16T00:39:38;8.32;;;3.80;;
45077;SDS011;60508;42.622;25.416;2023-04-16T00:42:04;9.52;;;5.70;;
45077;SDS011;60508;42.622;25.416;2023-04-16T00:44:30;7.15;;;4.80;;
45077;SDS011;60508;42.622;25.416;2023-04-16T00:46:56;14.80;;;5.93;;
45077;SDS011;60508;42.622;25.416;2023-04-16T00:49:22;9.85;;;4.53;;
45077;SDS011;60508;42.622;25.416;2023-04-16T00:51:49;8.80;;;3.75;;
45077;SDS011;60508;42.622;25.416;2023-04-16T00:54:15;12.55;;;4.85;;
45077;SDS011;60508;42.622;25.416;2023-04-16T00:56:42;13.25;;;3.80;;
45077;SDS011;60508;42.622;25.416;2023-04-16T00:59:09;13.27;;;3.28;;
45077;SDS011;60508;42.622;25.416;2023-04-16T01:01:35;8.05;;;3.47;;
45077;SDS011;60508;42.622;25.416;2023-04-16T01:04:03;11.05;;;3.70;;
45077;SDS011;60508;42.622;25.416;2023-04-16T01:06:31;10.63;;;4.05;;
45077;SDS011;60508;42.622;25.416;2023-04-16T01:08:58;9.57;;;3.38;;
45077;SDS011;60508;42.622;25.416;2023-04-16T01:11:24;10.80;;;3.38;;
45077;SDS011;60508;42.622;25.416;2023-04-16T01:13:50;6.47;;;2.60;;
45077;SDS011;60508;42.622;25.416;2023-04-16T01:16:16;14.48;;;4.47;;
45077;SDS011;60508;42.622;25.416;2023-04-16T01:18:42;10.43;;;3.88;;
45077;SDS011;60508;42.622;25.416;2023-04-16T01:21:08;5.40;;;3.03;;
45077;SDS011;60508;42.622;25.416;2023-04-16T01:23:34;6.18;;;2.65;;
45077;SDS011;60508;42.622;25.416;2023-04-16T01:26:01;11.57;;;3.55;;
45077;SDS011;60508;42.622;25.416;2023-04-16T01:28:27;9.73;;;3.58;;
45077;SDS011;60508;42.622;25.416;2023-04-16T01:30:53;19.80;;;3.30;;
45077;SDS011;60508;42.622;25.416;2023-04-16T01:33:38;8.40;;;3.58;;
45077;SDS011;60508;42.622;25.416;2023-04-16T01:36:05;9.18;;;3.55;;
45077;SDS011;60508;42.622;25.416;2023-04-16T01:38:31;15.68;;;3.63;;
45077;SDS011;60508;42.622;25.416;2023-04-16T01:40:57;7.38;;;3.45;;
45077;SDS011;60508;42.622;25.416;2023-04-16T01:43:24;18.95;;;5.05;;
45077;SDS011;60508;42.622;25.416;2023-04-16T01:45:50;10.27;;;3.05;;
45077;SDS011;60508;42.622;25.416;2023-04-16T01:48:18;10.27;;;4.07;;
45077;SDS011;60508;42.622;25.416;2023-04-16T01:50:44;9.50;;;4.53;;
45077;SDS011;60508;42.622;25.416;2023-04-16T01:53:10;7.40;;;4.07;;
45077;SDS011;60508;42.622;25.416;2023-04-16T01:55:36;7.75;;;4.60;;
45077;SDS011;60508;42.622;25.416;2023-04-16T01:58:02;13.77;;;3.58;;
45077;SDS011;60508;42.622;25.416;2023-04-16T02:00:32;7.50;;;3.03;;
45077;SDS011;60508;42.622;25.416;2023-04-16T02:02:58;10.65;;;3.30;;
45077;SDS011;60508;42.622;25.416;2023-04-16T02:05:26;9.35;;;3.22;;
45077;SDS011;60508;42.622;25.416;2023-04-16T02:07:52;11.45;;;3.08;;
45077;SDS011;60508;42.622;25.416;2023-04-16T02:10:18;9.48;;;2.85;;
45077;SDS011;60508;42.622;25.416;2023-04-16T02:12:46;7.55;;;3.42;;
45077;SDS011;60508;42.622;25.416;2023-04-16T02:15:13;9.75;;;4.07;;
45077;SDS011;60508;42.622;25.416;2023-04-16T02:17:40;17.33;;;4.50;;
45077;SDS011;60508;42.622;25.416;2023-04-16T02:20:08;8.37;;;3.77;;
45077;SDS011;60508;42.622;25.416;2023-04-16T02:22:41;11.40;;;2.97;;
45077;SDS011;60508;42.622;25.416;2023-04-16T02:25:10;9.40;;;3.97;;
45077;SDS011;60508;42.622;25.416;2023-04-16T02:27:36;10.25;;;2.70;;
45077;SDS011;60508;42.622;25.416;2023-04-16T02:30:16;6.32;;;2.70;;
45077;SDS011;60508;42.622;25.416;2023-04-16T02:32:43;7.90;;;3.17;;
45077;SDS011;60508;42.622;25.416;2023-04-16T02:35:09;13.88;;;2.55;;
45077;SDS011;60508;42.622;25.416;2023-04-16T02:37:35;8.27;;;3.65;;
45077;SDS011;60508;42.622;25.416;2023-04-16T02:40:05;12.32;;;4.00;;
45077;SDS011;60508;42.622;25.416;2023-04-16T02:42:32;9.32;;;2.58;;
45077;SDS011;60508;42.622;25.416;2023-04-16T02:44:58;9.27;;;2.63;;
45077;SDS011;60508;42.622;25.416;2023-04-16T02:47:23;8.57;;;2.65;;
45077;SDS011;60508;42.622;25.416;2023-04-16T02:49:49;11.40;;;2.55;;
45077;SDS011;60508;42.622;25.416;2023-04-16T02:52:16;9.05;;;2.45;;
45077;SDS011;60508;42.622;25.416;2023-04-16T02:54:42;5.40;;;2.10;;
45077;SDS011;60508;42.622;25.416;2023-04-16T02:57:08;5.40;;;3.08;;
45077;SDS011;60508;42.622;25.416;2023-04-16T02:59:34;8.73;;;2.97;;
45077;SDS011;60508;42.622;25.416;2023-04-16T03:02:00;11.98;;;4.57;;
45077;SDS011;60508;42.622;25.416;2023-04-16T03:04:26;7.55;;;3.78;;
45077;SDS011;60508;42.622;25.416;2023-04-16T03:06:52;11.10;;;4.25;;
45077;SDS011;60508;42.622;25.416;2023-04-16T03:09:18;9.63;;;3.80;;
45077;SDS011;60508;42.622;25.416;2023-04-16T03:11:44;7.53;;;2.90;;
45077;SDS011;60508;42.622;25.416;2023-04-16T03:14:10;11.05;;;4.28;;
45077;SDS011;60508;42.622;25.416;2023-04-16T03:16:36;6.25;;;3.63;;
45077;SDS011;60508;42.622;25.416;2023-04-16T03:19:02;7.60;;;3.15;;
45077;SDS011;60508;42.622;25.416;2023-04-16T03:21:28;13.32;;;3.53;;
45077;SDS011;60508;42.622;25.416;2023-04-16T03:23:54;8.23;;;3.53;;
45077;SDS011;60508;42.622;25.416;2023-04-16T03:26:21;8.27;;;3.22;;
45077;SDS011;60508;42.622;25.416;2023-04-16T03:28:48;13.63;;;3.70;;
45077;SDS011;60508;42.622;25.416;2023-04-16T03:31:14;11.65;;;3.33;;
45077;SDS011;60508;42.622;25.416;2023-04-16T03:33:40;11.90;;;3.60;;
45077;SDS011;60508;42.622;25.416;2023-04-16T03:36:08;10.30;;;2.30;;
45077;SDS011;60508;42.622;25.416;2023-04-16T03:38:34;5.60;;;3.60;;
45077;SDS011;60508;42.622;25.416;2023-04-16T03:41:00;11.38;;;2.63;;
45077;SDS011;60508;42.622;25.416;2023-04-16T03:43:28;12.63;;;3.03;;
45077;SDS011;60508;42.622;25.416;2023-04-16T03:45:54;14.52;;;2.53;;
45077;SDS011;60508;42.622;25.416;2023-04-16T03:48:22;8.73;;;3.05;;
45077;SDS011;60508;42.622;25.416;2023-04-16T03:50:48;7.03;;;2.83;;
45077;SDS011;60508;42.622;25.416;2023-04-16T03:53:16;12.63;;;3.13;;
45077;SDS011;60508;42.622;25.416;2023-04-16T03:55:42;14.02;;;2.92;;
45077;SDS011;60508;42.622;25.416;2023-04-16T03:58:08;7.05;;;2.33;;
45077;SDS011;60508;42.622;25.416;2023-04-16T04:00:35;9.00;;;4.70;;
45077;SDS011;60508;42.622;25.416;2023-04-16T04:03:09;8.35;;;3.00;;
45077;SDS011;60508;42.622;25.416;2023-04-16T04:05:40;9.43;;;2.90;;
45077;SDS011;60508;42.622;25.416;2023-04-16T04:08:09;12.15;;;2.90;;
45077;SDS011;60508;42.622;25.416;2023-04-16T04:10:35;21.88;;;4.00;;
45077;SDS011;60508;42.622;25.416;2023-04-16T04:13:04;7.20;;;4.13;;
45077;SDS011;60508;42.622;25.416;2023-04-16T04:15:31;6.95;;;4.05;;
45077;SDS011;60508;42.622;25.416;2023-04-16T04:17:58;10.90;;;6.03;;
45077;SDS011;60508;42.622;25.416;2023-04-16T04:20:24;7.85;;;3.38;;
45077;SDS011;60508;42.622;25.416;2023-04-16T04:22:51;5.43;;;3.63;;
45077;SDS011;60508;42.622;25.416;2023-04-16T04:25:19;16.03;;;4.27;;
45077;SDS011;60508;42.622;25.416;2023-04-16T04:27:45;13.40;;;4.32;;
45077;SDS011;60508;42.622;25.416;2023-04-16T04:30:11;9.38;;;3.42;;
45077;SDS011;60508;42.622;25.416;2023-04-16T04:32:39;10.63;;;4.10;;
45077;SDS011;60508;42.622;25.416;2023-04-16T04:35:05;12.30;;;4.47;;
45077;SDS011;60508;42.622;25.416;2023-04-16T04:37:31;13.18;;;6.35;;
45077;SDS011;60508;42.622;25.416;2023-04-16T04:39:57;19.05;;;7.85;;
45077;SDS011;60508;42.622;25.416;2023-04-16T04:42:23;18.40;;;7.68;;
45077;SDS011;60508;42.622;25.416;2023-04-16T04:44:49;19.73;;;8.23;;
45077;SDS011;60508;42.622;25.416;2023-04-16T04:47:16;8.70;;;4.95;;
45077;SDS011;60508;42.622;25.416;2023-04-16T04:49:42;7.22;;;2.97;;
45077;SDS011;60508;42.622;25.416;2023-04-16T04:52:08;11.98;;;6.68;;
45077;SDS011;60508;42.622;25.416;2023-04-16T04:54:34;15.60;;;6.90;;
45077;SDS011;60508;42.622;25.416;2023-04-16T04:57:01;10.75;;;6.00;;
45077;SDS011;60508;42.622;25.416;2023-04-16T04:59:28;10.25;;;5.00;;
45077;SDS011;60508;42.622;25.416;2023-04-16T05:01:54;12.50;;;5.53;;
45077;SDS011;60508;42.622;25.416;2023-04-16T05:04:20;11.38;;;5.82;;
45077;SDS011;60508;42.622;25.416;2023-04-16T05:06:46;9.95;;;4.05;;
45077;SDS011;60508;42.622;25.416;2023-04-16T05:09:11;6.43;;;3.65;;
45077;SDS011;60508;42.622;25.416;2023-04-16T05:11:37;11.95;;;3.80;;
45077;SDS011;60508;42.622;25.416;2023-04-16T05:14:03;10.68;;;3.97;;
45077;SDS011;60508;42.622;25.416;2023-04-16T05:16:30;6.90;;;3.60;;
45077;SDS011;60508;42.622;25.416;2023-04-16T05:18:56;14.32;;;3.33;;
45077;SDS011;60508;42.622;25.416;2023-04-16T05:21:22;16.10;;;4.95;;
45077;SDS011;60508;42.622;25.416;2023-04-16T05:23:49;14.23;;;5.70;;
45077;SDS011;60508;42.622;25.416;2023-04-16T05:26:15;8.02;;;3.88;;
45077;SDS011;60508;42.622;25.416;2023-04-16T05:28:41;14.30;;;4.90;;
45077;SDS011;60508;42.622;25.416;2023-04-16T05:31:06;13.55;;;5.78;;
45077;SDS011;60508;42.622;25.416;2023-04-16T05:33:32;15.13;;;4.30;;
45077;SDS011;60508;42.622;25.416;2023-04-16T05:35:58;16.52;;;6.50;;
45077;SDS011;60508;42.622;25.416;2023-04-16T05:38:24;16.73;;;5.63;;
45077;SDS011;60508;42.622;25.416;2023-04-16T05:40:50;16.63;;;6.28;;
45077;SDS011;60508;42.622;25.416;2023-04-16T05:43:16;9.25;;;4.07;;
45077;SDS011;60508;42.622;25.416;2023-04-16T05:45:42;15.77;;;4.82;;
45077;SDS011;60508;42.622;25.416;2023-04-16T05:48:08;16.10;;;5.32;;
45077;SDS011;60508;42.622;25.416;2023-04-16T05:50:35;11.13;;;5.47;;
45077;SDS011;60508;42.622;25.416;2023-04-16T05:53:01;15.82;;;8.57;;
45077;SDS011;60508;42.622;25.416;2023-04-16T05:55:30;22.67;;;10.05;;
45077;SDS011;60508;42.622;25.416;2023-04-16T05:57:56;18.38;;;8.45;;
45077;SDS011;60508;42.622;25.416;2023-04-16T06:00:22;23.55;;;9.10;;
45077;SDS011;60508;42.622;25.416;2023-04-16T06:02:48;14.57;;;6.60;;
45077;SDS011;60508;42.622;25.416;2023-04-16T06:05:15;16.10;;;7.05;;
45077;SDS011;60508;42.622;25.416;2023-04-16T06:07:41;16.50;;;7.65;;
45077;SDS011;60508;42.622;25.416;2023-04-16T06:10:07;19.05;;;10.38;;
45077;SDS011;60508;42.622;25.416;2023-04-16T06:12:33;11.10;;;8.05;;
45077;SDS011;60508;42.622;25.416;2023-04-16T06:15:00;21.88;;;9.57;;
45077;SDS011;60508;42.622;25.416;2023-04-16T06:17:25;17.60;;;9.57;;
45077;SDS011;60508;42.622;25.416;2023-04-16T06:19:51;15.25;;;7.88;;
45077;SDS011;60508;42.622;25.416;2023-04-16T06:22:17;23.08;;;8.20;;
45077;SDS011;60508;42.622;25.416;2023-04-16T06:24:43;25.88;;;9.27;;
45077;SDS011;60508;42.622;25.416;2023-04-16T06:27:09;24.70;;;11.48;;
45077;SDS011;60508;42.622;25.416;2023-04-16T06:29:35;25.08;;;12.63;;
45077;SDS011;60508;42.622;25.416;2023-04-16T06:32:01;20.65;;;10.30;;
45077;SDS011;60508;42.622;25.416;2023-04-16T06:34:28;28.40;;;13.30;;
45077;SDS011;60508;42.622;25.416;2023-04-16T06:36:54;26.13;;;12.50;;
45077;SDS011;60508;42.622;25.416;2023-04-16T06:39:20;21.98;;;14.02;;
45077;SDS011;60508;42.622;25.416;2023-04-16T06:41:47;22.88;;;13.38;;
45077;SDS011;60508;42.622;25.416;2023-04-16T06:44:13;32.05;;;14.77;;
45077;SDS011;60508;42.622;25.416;2023-04-16T06:46:40;26.90;;;14.15;;
45077;SDS011;60508;42.622;25.416;2023-04-16T06:49:06;27.08;;;13.13;;
45077;SDS011;60508;42.622;25.416;2023-04-16T06:51:32;27.02;;;12.45;;
45077;SDS011;60508;42.622;25.416;2023-04-16T06:53:58;24.25;;;12.32;;
45077;SDS011;60508;42.622;25.416;2023-04-16T06:56:24;24.38;;;11.38;;
45077;SDS011;60508;42.622;25.416;2023-04-16T06:58:50;28.33;;;11.95;;
45077;SDS011;60508;42.622;25.416;2023-04-16T07:01:16;28.52;;;12.13;;
45077;SDS011;60508;42.622;25.416;2023-04-16T07:03:43;27.33;;;11.98;;
45077;SDS011;60508;42.622;25.416;2023-04-16T07:06:09;32.35;;;13.60;;
45077;SDS011;60508;42.622;25.416;2023-04-16T07:08:35;29.65;;;14.23;;
45077;SDS011;60508;42.622;25.416;2023-04-16T07:11:01;24.60;;;13.43;;
45077;SDS011;60508;42.622;25.416;2023-04-16T07:13:27;22.00;;;10.07;;
45077;SDS011;60508;42.622;25.416;2023-04-16T07:15:52;18.35;;;8.55;;
45077;SDS011;60508;42.622;25.416;2023-04-16T07:18:18;19.08;;;9.63;;
45077;SDS011;60508;42.622;25.416;2023-04-16T07:20:46;23.05;;;10.95;;
45077;SDS011;60508;42.622;25.416;2023-04-16T07:23:12;24.58;;;10.80;;
45077;SDS011;60508;42.622;25.416;2023-04-16T07:25:38;17.80;;;9.68;;
45077;SDS011;60508;42.622;25.416;2023-04-16T07:28:06;25.90;;;10.75;;
45077;SDS011;60508;42.622;25.416;2023-04-16T07:30:33;23.17;;;11.73;;
45077;SDS011;60508;42.622;25.416;2023-04-16T07:33:00;23.50;;;10.85;;
45077;SDS011;60508;42.622;25.416;2023-04-16T07:35:27;16.92;;;9.25;;
45077;SDS011;60508;42.622;25.416;2023-04-16T07:37:53;24.50;;;9.23;;
45077;SDS011;60508;42.622;25.416;2023-04-16T07:40:19;22.48;;;11.25;;
45077;SDS011;60508;42.622;25.416;2023-04-16T07:42:45;29.88;;;11.30;;
45077;SDS011;60508;42.622;25.416;2023-04-16T07:45:11;19.50;;;10.43;;
45077;SDS011;60508;42.622;25.416;2023-04-16T07:47:37;25.63;;;10.40;;
45077;SDS011;60508;42.622;25.416;2023-04-16T07:50:04;19.27;;;9.43;;
45077;SDS011;60508;42.622;25.416;2023-04-16T07:52:30;18.35;;;8.35;;
45077;SDS011;60508;42.622;25.416;2023-04-16T07:54:57;17.90;;;9.60;;
45077;SDS011;60508;42.622;25.416;2023-04-16T07:57:23;17.40;;;9.25;;
45077;SDS011;60508;42.622;25.416;2023-04-16T07:59:49;24.80;;;9.80;;
45077;SDS011;60508;42.622;25.416;2023-04-16T08:02:15;19.20;;;9.35;;
45077;SDS011;60508;42.622;25.416;2023-04-16T08:04:42;18.02;;;10.40;;
45077;SDS011;60508;42.622;25.416;2023-04-16T08:07:08;21.50;;;11.20;;
45077;SDS011;60508;42.622;25.416;2023-04-16T08:09:34;27.70;;;13.48;;
45077;SDS011;60508;42.622;25.416;2023-04-16T08:12:01;19.23;;;10.90;;
45077;SDS011;60508;42.622;25.416;2023-04-16T08:14:27;22.75;;;11.65;;
45077;SDS011;60508;42.622;25.416;2023-04-16T08:16:53;26.27;;;12.50;;
45077;SDS011;60508;42.622;25.416;2023-04-16T08:19:19;18.98;;;10.20;;
45077;SDS011;60508;42.622;25.416;2023-04-16T08:21:45;23.33;;;14.30;;
45077;SDS011;60508;42.622;25.416;2023-04-16T08:24:11;19.55;;;9.45;;
45077;SDS011;60508;42.622;25.416;2023-04-16T08:26:37;15.20;;;9.35;;
45077;SDS011;60508;42.622;25.416;2023-04-16T08:29:03;16.92;;;9.77;;
45077;SDS011;60508;42.622;25.416;2023-04-16T08:31:29;16.88;;;10.65;;
45077;SDS011;60508;42.622;25.416;2023-04-16T08:33:55;19.85;;;9.20;;
45077;SDS011;60508;42.622;25.416;2023-04-16T08:36:21;19.30;;;10.13;;
45077;SDS011;60508;42.622;25.416;2023-04-16T08:38:47;14.90;;;10.18;;
45077;SDS011;60508;42.622;25.416;2023-04-16T08:41:13;19.33;;;9.85;;
45077;SDS011;60508;42.622;25.416;2023-04-16T08:43:43;23.35;;;10.48;;
45077;SDS011;60508;42.622;25.416;2023-04-16T08:46:13;20.25;;;9.88;;
45077;SDS011;60508;42.622;25.416;2023-04-16T08:48:42;24.98;;;11.23;;
45077;SDS011;60508;42.622;25.416;2023-04-16T08:51:13;20.60;;;10.70;;
45077;SDS011;60508;42.622;25.416;2023-04-16T08:53:55;16.70;;;8.57;;
45077;SDS011;60508;42.622;25.416;2023-04-16T08:56:35;23.83;;;9.77;;
45077;SDS011;60508;42.622;25.416;2023-04-16T08:59:02;15.70;;;8.60;;
45077;SDS011;60508;42.622;25.416;2023-04-16T09:01:34;17.13;;;7.75;;
45077;SDS011;60508;42.622;25.416;2023-04-16T09:06:27;14.32;;;6.85;;
45077;SDS011;60508;42.622;25.416;2023-04-16T09:08:53;10.27;;;5.75;;
45077;SDS011;60508;42.622;25.416;2023-04-16T09:11:20;18.70;;;7.47;;
45077;SDS011;60508;42.622;25.416;2023-04-16T09:13:47;12.77;;;7.10;;
45077;SDS011;60508;42.622;25.416;2023-04-16T09:16:13;23.45;;;9.25;;
45077;SDS011;60508;42.622;25.416;2023-04-16T09:18:39;17.67;;;7.53;;
45077;SDS011;60508;42.622;25.416;2023-04-16T09:21:07;15.85;;;7.30;;
45077;SDS011;60508;42.622;25.416;2023-04-16T09:23:34;11.87;;;6.53;;
45077;SDS011;60508;42.622;25.416;2023-04-16T09:26:03;15.88;;;6.45;;
45077;SDS011;60508;42.622;25.416;2023-04-16T09:28:42;22.65;;;7.07;;
45077;SDS011;60508;42.622;25.416;2023-04-16T09:31:15;23.70;;;7.18;;
45077;SDS011;60508;42.622;25.416;2023-04-16T09:33:42;15.10;;;6.47;;
45077;SDS011;60508;42.622;25.416;2023-04-16T09:36:09;18.13;;;6.15;;
45077;SDS011;60508;42.622;25.416;2023-04-16T09:38:45;21.17;;;7.07;;
45077;SDS011;60508;42.622;25.416;2023-04-16T09:41:12;18.80;;;5.15;;
45077;SDS011;60508;42.622;25.416;2023-04-16T09:43:48;14.95;;;5.75;;
45077;SDS011;60508;42.622;25.416;2023-04-16T09:46:28;14.85;;;4.80;;
45077;SDS011;60508;42.622;25.416;2023-04-16T09:48:55;18.98;;;6.63;;
45077;SDS011;60508;42.622;25.416;2023-04-16T09:51:21;13.52;;;6.43;;
45077;SDS011;60508;42.622;25.416;2023-04-16T09:53:50;16.13;;;5.13;;
45077;SDS011;60508;42.622;25.416;2023-04-16T09:56:17;15.30;;;7.60;;
45077;SDS011;60508;42.622;25.416;2023-04-16T09:58:43;19.35;;;5.78;;
45077;SDS011;60508;42.622;25.416;2023-04-16T10:01:12;18.05;;;8.30;;
45077;SDS011;60508;42.622;25.416;2023-04-16T10:03:38;15.02;;;6.75;;
45077;SDS011;60508;42.622;25.416;2023-04-16T10:06:15;14.38;;;5.28;;
45077;SDS011;60508;42.622;25.416;2023-04-16T10:08:51;16.88;;;6.80;;
45077;SDS011;60508;42.622;25.416;2023-04-16T10:11:19;15.70;;;6.75;;
45077;SDS011;60508;42.622;25.416;2023-04-16T10:13:45;11.55;;;6.00;;
45077;SDS011;60508;42.622;25.416;2023-04-16T10:16:11;14.30;;;6.95;;
45077;SDS011;60508;42.622;25.416;2023-04-16T10:18:38;20.90;;;7.45;;
45077;SDS011;60508;42.622;25.416;2023-04-16T10:21:06;13.70;;;5.63;;
45077;SDS011;60508;42.622;25.416;2023-04-16T10:23:32;14.43;;;6.50;;
45077;SDS011;60508;42.622;25.416;2023-04-16T10:25:59;12.90;;;5.78;;
45077;SDS011;60508;42.622;25.416;2023-04-16T10:28:26;18.92;;;6.65;;
45077;SDS011;60508;42.622;25.416;2023-04-16T10:30:54;17.00;;;5.75;;
45077;SDS011;60508;42.622;25.416;2023-04-16T10:33:26;11.75;;;5.38;;
45077;SDS011;60508;42.622;25.416;2023-04-16T10:36:13;11.80;;;5.22;;
45077;SDS011;60508;42.622;25.416;2023-04-16T10:38:44;17.00;;;6.15;;
45077;SDS011;60508;42.622;25.416;2023-04-16T10:41:11;20.10;;;5.20;;
45077;SDS011;60508;42.622;25.416;2023-04-16T10:43:45;11.65;;;5.22;;
45077;SDS011;60508;42.622;25.416;2023-04-16T10:46:25;13.88;;;4.70;;
45077;SDS011;60508;42.622;25.416;2023-04-16T10:48:55;12.07;;;4.97;;
45077;SDS011;60508;42.622;25.416;2023-04-16T10:51:32;12.93;;;5.65;;
45077;SDS011;60508;42.622;25.416;2023-04-16T10:56:36;18.00;;;5.97;;
45077;SDS011;60508;42.622;25.416;2023-04-16T10:59:03;9.45;;;3.97;;
45077;SDS011;60508;42.622;25.416;2023-04-16T11:01:34;12.43;;;4.18;;
45077;SDS011;60508;42.622;25.416;2023-04-16T11:12:13;9.95;;;3.17;;
45077;SDS011;60508;42.622;25.416;2023-04-16T11:14:46;16.98;;;3.10;;
45077;SDS011;60508;42.622;25.416;2023-04-16T11:17:16;11.05;;;6.03;;
45077;SDS011;60508;42.622;25.416;2023-04-16T11:19:43;11.82;;;4.28;;
45077;SDS011;60508;42.622;25.416;2023-04-16T11:22:10;15.50;;;6.50;;
45077;SDS011;60508;42.622;25.416;2023-04-16T11:24:38;10.18;;;5.32;;
45077;SDS011;60508;42.622;25.416;2023-04-16T11:27:05;14.60;;;4.60;;
45077;SDS011;60508;42.622;25.416;2023-04-16T11:29:32;16.05;;;5.47;;
45077;SDS011;60508;42.622;25.416;2023-04-16T11:31:58;13.75;;;4.07;;
45077;SDS011;60508;42.622;25.416;2023-04-16T11:34:24;9.38;;;4.10;;
45077;SDS011;60508;42.622;25.416;2023-04-16T11:36:50;11.75;;;4.30;;
45077;SDS011;60508;42.622;25.416;2023-04-16T11:39:17;17.40;;;7.10;;
45077;SDS011;60508;42.622;25.416;2023-04-16T11:41:48;14.98;;;6.07;;
45077;SDS011;60508;42.622;25.416;2023-04-16T11:44:21;15.90;;;4.32;;
45077;SDS011;60508;42.622;25.416;2023-04-16T11:46:48;12.65;;;5.32;;
45077;SDS011;60508;42.622;25.416;2023-04-16T11:49:15;10.82;;;5.10;;
45077;SDS011;60508;42.622;25.416;2023-04-16T11:51:44;14.68;;;5.60;;
45077;SDS011;60508;42.622;25.416;2023-04-16T11:54:18;13.05;;;4.82;;
45077;SDS011;60508;42.622;25.416;2023-04-16T11:56:46;17.75;;;6.32;;
45077;SDS011;60508;42.622;25.416;2023-04-16T11:59:13;18.23;;;5.05;;
45077;SDS011;60508;42.622;25.416;2023-04-16T12:01:42;9.02;;;3.50;;
45077;SDS011;60508;42.622;25.416;2023-04-16T12:04:12;8.80;;;4.32;;
45077;SDS011;60508;42.622;25.416;2023-04-16T12:06:38;12.20;;;4.97;;
45077;SDS011;60508;42.622;25.416;2023-04-16T12:09:23;9.25;;;4.07;;
45077;SDS011;60508;42.622;25.416;2023-04-16T12:11:50;12.57;;;4.70;;
45077;SDS011;60508;42.622;25.416;2023-04-16T12:14:17;12.25;;;4.38;;
45077;SDS011;60508;42.622;25.416;2023-04-16T12:16:43;9.40;;;3.58;;
45077;SDS011;60508;42.622;25.416;2023-04-16T12:19:10;9.80;;;3.50;;
45077;SDS011;60508;42.622;25.416;2023-04-16T12:24:09;11.30;;;5.05;;
45077;SDS011;60508;42.622;25.416;2023-04-16T12:26:46;12.90;;;4.53;;
45077;SDS011;60508;42.622;25.416;2023-04-16T12:29:25;11.63;;;3.83;;
45077;SDS011;60508;42.622;25.416;2023-04-16T12:31:54;10.00;;;3.78;;
45077;SDS011;60508;42.622;25.416;2023-04-16T12:34:20;11.95;;;4.95;;
45077;SDS011;60508;42.622;25.416;2023-04-16T12:36:52;14.82;;;3.78;;
45077;SDS011;60508;42.622;25.416;2023-04-16T12:39:33;7.60;;;3.28;;
45077;SDS011;60508;42.622;25.416;2023-04-16T12:41:59;9.20;;;3.85;;
45077;SDS011;60508;42.622;25.416;2023-04-16T12:44:26;11.30;;;3.55;;
45077;SDS011;60508;42.622;25.416;2023-04-16T12:46:53;10.60;;;2.95;;
45077;SDS011;60508;42.622;25.416;2023-04-16T12:49:20;16.15;;;5.10;;
45077;SDS011;60508;42.622;25.416;2023-04-16T12:51:46;17.50;;;3.72;;
45077;SDS011;60508;42.622;25.416;2023-04-16T12:54:12;11.05;;;3.35;;
45077;SDS011;60508;42.622;25.416;2023-04-16T12:56:38;11.30;;;4.65;;
45077;SDS011;60508;42.622;25.416;2023-04-16T12:59:04;15.15;;;4.90;;
45077;SDS011;60508;42.622;25.416;2023-04-16T13:01:30;10.88;;;4.03;;
45077;SDS011;60508;42.622;25.416;2023-04-16T13:03:56;8.57;;;3.28;;
45077;SDS011;60508;42.622;25.416;2023-04-16T13:06:22;12.45;;;3.30;;
45077;SDS011;60508;42.622;25.416;2023-04-16T13:08:47;11.05;;;3.70;;
45077;SDS011;60508;42.622;25.416;2023-04-16T13:11:13;16.98;;;4.43;;
45077;SDS011;60508;42.622;25.416;2023-04-16T13:13:39;5.80;;;2.88;;
45077;SDS011;60508;42.622;25.416;2023-04-16T13:16:05;4.63;;;3.53;;
45077;SDS011;60508;42.622;25.416;2023-04-16T13:18:33;9.27;;;3.78;;
45077;SDS011;60508;42.622;25.416;2023-04-16T13:21:01;6.05;;;3.13;;
45077;SDS011;60508;42.622;25.416;2023-04-16T13:23:27;10.50;;;3.67;;
45077;SDS011;60508;42.622;25.416;2023-04-16T13:25:53;8.57;;;4.57;;
45077;SDS011;60508;42.622;25.416;2023-04-16T13:28:19;7.88;;;3.25;;
45077;SDS011;60508;42.622;25.416;2023-04-16T13:30:44;12.02;;;4.75;;
45077;SDS011;60508;42.622;25.416;2023-04-16T13:33:11;7.80;;;3.40;;
45077;SDS011;60508;42.622;25.416;2023-04-16T13:35:37;10.52;;;4.18;;
45077;SDS011;60508;42.622;25.416;2023-04-16T13:38:03;11.38;;;4.20;;
45077;SDS011;60508;42.622;25.416;2023-04-16T13:40:30;8.52;;;3.53;;
45077;SDS011;60508;42.622;25.416;2023-04-16T13:42:56;12.68;;;4.63;;
45077;SDS011;60508;42.622;25.416;2023-04-16T13:45:22;9.48;;;4.43;;
45077;SDS011;60508;42.622;25.416;2023-04-16T13:47:48;11.35;;;4.10;;
45077;SDS011;60508;42.622;25.416;2023-04-16T13:50:13;6.43;;;4.03;;
45077;SDS011;60508;42.622;25.416;2023-04-16T13:52:40;10.07;;;3.50;;
45077;SDS011;60508;42.622;25.416;2023-04-16T13:55:06;12.32;;;3.63;;
45077;SDS011;60508;42.622;25.416;2023-04-16T13:57:34;5.68;;;2.63;;
45077;SDS011;60508;42.622;25.416;2023-04-16T14:00:00;6.30;;;2.67;;
45077;SDS011;60508;42.622;25.416;2023-04-16T14:02:25;9.35;;;3.33;;
45077;SDS011;60508;42.622;25.416;2023-04-16T14:04:53;10.05;;;3.38;;
45077;SDS011;60508;42.622;25.416;2023-04-16T14:07:19;11.35;;;3.83;;
45077;SDS011;60508;42.622;25.416;2023-04-16T14:09:48;9.30;;;3.08;;
45077;SDS011;60508;42.622;25.416;2023-04-16T14:12:14;9.15;;;3.25;;
45077;SDS011;60508;42.622;25.416;2023-04-16T14:14:41;4.82;;;2.63;;
45077;SDS011;60508;42.622;25.416;2023-04-16T14:17:07;10.65;;;3.25;;
45077;SDS011;60508;42.622;25.416;2023-04-16T14:19:33;10.27;;;3.90;;
45077;SDS011;60508;42.622;25.416;2023-04-16T14:21:59;5.90;;;3.20;;
45077;SDS011;60508;42.622;25.416;2023-04-16T14:24:25;10.05;;;3.15;;
45077;SDS011;60508;42.622;25.416;2023-04-16T14:26:50;6.18;;;3.22;;
45077;SDS011;60508;42.622;25.416;2023-04-16T14:29:16;8.60;;;2.95;;
45077;SDS011;60508;42.622;25.416;2023-04-16T14:31:42;10.68;;;4.05;;
45077;SDS011;60508;42.622;25.416;2023-04-16T14:34:08;8.60;;;4.47;;
45077;SDS011;60508;42.622;25.416;2023-04-16T14:36:34;8.82;;;2.65;;
45077;SDS011;60508;42.622;25.416;2023-04-16T14:39:01;5.38;;;3.28;;